createdAt,value
2023-01-30T00:38:31.072Z,502.00
2023-01-30T00:40:31.105Z,508.00
2023-01-30T00:41:31.167Z,510.00
2023-01-30T00:42:31.207Z,512.00
2023-01-30T00:43:31.277Z,508.00
2023-01-30T00:44:31.329Z,506.00
2023-01-30T00:45:31.427Z,507.00
2023-01-30T00:46:31.432Z,505.00
2023-01-30T00:47:31.492Z,510.00
2023-01-30T00:48:31.546Z,506.00
2023-01-30T00:49:31.973Z,516.00
2023-01-30T00:50:31.648Z,510.00
2023-01-30T00:51:31.705Z,510.00
2023-01-30T00:52:31.756Z,510.00
2023-01-30T00:53:31.829Z,509.00
2023-01-30T00:54:31.879Z,508.00
2023-01-30T00:55:31.907Z,508.00
2023-01-30T00:56:31.964Z,505.00
2023-01-30T00:57:32.008Z,514.00
2023-01-30T00:58:32.056Z,508.00
2023-01-30T00:59:32.130Z,507.00
2023-01-30T01:00:32.167Z,514.00
2023-01-30T01:01:32.217Z,515.00
2023-01-30T01:02:32.264Z,506.00
2023-01-30T01:03:32.331Z,508.00
2023-01-30T01:04:32.375Z,511.00
2023-01-30T01:25:33.513Z,509.00
2023-01-30T01:37:34.093Z,511.00
2023-01-30T01:57:34.860Z,509.00
2023-01-30T02:59:42.898Z,504.00
2023-01-30T03:41:41.905Z,506.00
2023-01-30T03:42:41.191Z,506.00
2023-01-30T03:43:41.278Z,506.00
2023-01-30T03:44:41.351Z,507.00
2023-01-30T03:45:41.465Z,507.00
2023-01-30T03:46:41.527Z,501.00
2023-01-30T03:47:41.625Z,503.00
2023-01-30T03:48:41.713Z,506.00
2023-01-30T03:49:41.792Z,505.00
2023-01-30T03:50:41.875Z,506.00
2023-01-30T03:51:41.961Z,505.00
2023-01-30T03:52:42.068Z,506.00
2023-01-30T03:53:42.150Z,506.00
2023-01-30T03:54:42.234Z,503.00
2023-01-30T03:55:42.392Z,506.00
2023-01-30T03:56:42.407Z,504.00
2023-01-30T03:57:42.528Z,506.00
2023-01-30T03:58:42.577Z,507.00
2023-01-30T03:59:42.656Z,507.00
2023-01-30T04:00:42.753Z,504.00
2023-01-30T04:01:42.829Z,506.00
2023-01-30T04:02:42.957Z,502.00
2023-01-30T04:03:42.996Z,512.00
2023-01-30T05:36:51.031Z,508.00
2023-01-30T05:40:51.935Z,506.00
2023-01-30T05:41:51.075Z,502.00
2023-01-30T05:42:51.155Z,502.00
2023-01-30T05:43:51.343Z,511.00
2023-01-30T05:44:51.317Z,507.00
2023-01-30T05:45:51.386Z,510.00
2023-01-30T05:46:51.506Z,505.00
2023-01-30T05:47:51.548Z,506.00
2023-01-30T05:48:51.635Z,512.00
2023-01-30T05:49:51.791Z,505.00
2023-01-30T05:50:51.801Z,502.00
2023-01-30T05:51:51.874Z,506.00
2023-01-30T05:52:51.945Z,507.00
2023-01-30T05:53:52.030Z,503.00
2023-01-30T05:54:52.147Z,508.00
2023-01-30T05:55:52.188Z,509.00
2023-01-30T05:56:52.288Z,508.00
2023-01-30T05:57:52.363Z,504.00
2023-01-30T05:58:52.456Z,501.00
2023-01-30T06:00:52.609Z,505.00
2023-01-30T06:01:52.708Z,510.00
2023-01-30T06:02:52.811Z,505.00
2023-01-30T06:03:52.910Z,505.00
2023-01-30T06:08:53.256Z,506.00
2023-01-30T07:50:58.501Z,1127.00
2023-01-30T08:45:01.184Z,946.00
2023-01-30T08:48:01.081Z,927.00
2023-01-30T08:49:01.149Z,939.00
2023-01-30T08:50:01.175Z,939.00
2023-01-30T08:51:01.283Z,931.00
2023-01-30T08:52:01.288Z,920.00
2023-01-30T08:53:01.329Z,926.00
2023-01-30T08:54:01.384Z,931.00
2023-01-30T08:55:01.438Z,929.00
2023-01-30T08:56:01.578Z,916.00
2023-01-30T08:57:01.525Z,922.00
2023-01-30T08:58:01.581Z,917.00
2023-01-30T08:59:01.639Z,911.00
2023-01-30T09:01:01.777Z,907.00
2023-01-30T09:06:01.974Z,900.00
2023-01-30T09:07:02.022Z,875.00
2023-01-30T09:08:02.151Z,885.00
2023-01-30T09:09:02.125Z,889.00
2023-01-30T09:10:02.165Z,885.00
2023-01-30T09:11:02.203Z,879.00
2023-01-30T12:00:06.192Z,1115.00
2023-01-30T12:01:06.218Z,1107.00
2023-01-30T12:02:06.278Z,1105.00
2023-01-30T12:03:06.283Z,1100.00
2023-01-30T12:04:06.348Z,1104.00
2023-01-30T12:05:07.056Z,1098.00
2023-01-30T12:06:06.395Z,1095.00
2023-01-30T12:07:06.406Z,1093.00
2023-01-30T12:08:06.430Z,1084.00
2023-01-30T12:09:06.452Z,1079.00
2023-01-30T12:10:06.492Z,1085.00
2023-01-30T12:11:06.518Z,1082.00
2023-01-30T12:12:06.544Z,1077.00
2023-01-30T12:13:07.536Z,1067.00
2023-01-30T12:14:06.599Z,1065.00
2023-01-30T12:15:06.619Z,1079.00
2023-01-30T12:16:06.638Z,1059.00
2023-01-30T12:17:06.655Z,1065.00
2023-01-30T12:18:06.711Z,1062.00
2023-01-30T12:19:06.892Z,1050.00
2023-01-30T12:20:06.943Z,1045.00
2023-01-30T12:21:07.064Z,1054.00
2023-01-30T12:22:07.159Z,1048.00
2023-01-30T12:23:07.177Z,1046.00
2023-01-30T12:24:07.190Z,1036.00
2023-01-30T12:25:07.206Z,1027.00
2023-01-30T12:26:07.223Z,1032.00
2023-01-30T12:27:07.233Z,1030.00
2023-01-30T12:28:07.399Z,1025.00
2023-01-30T12:29:07.428Z,1031.00
2023-01-30T12:30:07.543Z,1020.00
2023-01-30T12:31:07.680Z,1014.00
2023-01-30T12:32:09.594Z,1007.00
2023-01-30T12:34:07.776Z,997.00
2023-01-30T12:35:07.800Z,995.00
2023-01-30T12:36:07.799Z,999.00
2023-01-30T12:49:11.308Z,951.00
2023-01-30T12:50:08.006Z,969.00
2023-01-30T15:25:11.604Z,608.00
2023-01-30T15:42:11.598Z,596.00
2023-01-30T15:49:11.547Z,595.00
2023-01-30T15:50:11.614Z,595.00
2023-01-30T15:51:11.685Z,589.00
2023-01-30T16:27:13.418Z,572.00
2023-01-30T16:28:13.477Z,574.00
2023-01-30T16:29:13.519Z,572.00
2023-01-30T16:30:13.619Z,576.00
2023-01-30T16:32:13.675Z,576.00
2023-01-30T16:33:13.704Z,573.00
2023-01-30T16:34:13.838Z,578.00
2023-01-30T16:35:13.814Z,567.00
2023-01-30T16:36:13.857Z,575.00
2023-01-30T16:37:13.894Z,566.00
2023-01-30T16:38:13.941Z,570.00
2023-01-30T16:39:13.986Z,567.00
2023-01-30T16:40:14.042Z,573.00
2023-01-30T16:41:14.080Z,568.00
2023-01-30T16:42:14.112Z,567.00
2023-01-30T16:43:14.158Z,566.00
2023-01-30T16:44:14.239Z,572.00
2023-01-30T16:45:14.259Z,564.00
2023-01-30T16:46:14.309Z,565.00
2023-01-30T16:47:14.329Z,568.00
2023-01-30T16:48:14.372Z,565.00
2023-01-30T16:49:14.410Z,561.00
2023-01-30T16:50:14.448Z,562.00
2023-01-30T16:51:14.486Z,602.00
2023-01-30T16:52:14.528Z,627.00
2023-01-30T16:53:14.582Z,625.00
2023-01-30T16:54:14.625Z,629.00
2023-01-30T16:55:14.668Z,682.00
2023-01-30T16:56:14.800Z,821.00
2023-01-30T16:57:14.752Z,768.00
2023-01-30T16:58:14.807Z,890.00
2023-01-30T16:59:14.866Z,823.00
2023-01-30T17:00:14.892Z,666.00
2023-01-30T17:01:15.072Z,645.00
2023-01-30T17:02:15.103Z,642.00
2023-01-30T17:03:15.066Z,657.00
2023-01-30T17:04:15.043Z,699.00
2023-01-30T17:05:15.077Z,665.00
2023-01-30T17:07:15.167Z,710.00
2023-01-30T17:08:15.215Z,697.00
2023-01-30T17:09:15.256Z,674.00
2023-01-30T17:10:15.357Z,713.00
2023-01-30T17:11:15.359Z,724.00
2023-01-30T17:12:15.652Z,705.00
2023-01-30T17:13:15.444Z,723.00
2023-01-30T17:14:15.486Z,732.00
2023-01-30T17:15:15.562Z,683.00
2023-01-30T17:16:15.678Z,703.00
2023-01-30T19:44:21.504Z,538.00
2023-01-30T19:45:21.531Z,538.00
2023-01-30T19:46:21.603Z,545.00
2023-01-30T19:47:21.596Z,537.00
2023-01-30T19:48:21.629Z,535.00
2023-01-30T19:49:21.688Z,540.00
2023-01-30T19:50:21.836Z,539.00
2023-01-30T19:51:21.781Z,541.00
2023-01-30T19:52:21.839Z,534.00
2023-01-30T19:53:21.873Z,536.00
2023-01-30T20:09:22.502Z,527.00
2023-01-30T20:12:22.627Z,527.00
2023-01-30T20:13:22.650Z,526.00
2023-01-30T20:14:22.711Z,523.00
2023-01-30T20:15:22.727Z,531.00
2023-01-30T20:16:22.810Z,525.00
2023-01-30T20:17:23.669Z,524.00
2023-01-30T20:18:22.848Z,526.00
2023-01-30T20:19:22.918Z,517.00
2023-01-30T20:21:22.987Z,527.00
2023-01-30T20:22:23.013Z,524.00
2023-01-30T20:23:23.059Z,527.00
2023-01-30T20:24:23.064Z,530.00
2023-01-30T20:25:23.163Z,528.00
2023-01-30T20:26:23.196Z,520.00
2023-01-30T20:27:23.674Z,521.00
2023-01-30T20:28:23.246Z,520.00
2023-01-30T20:29:23.295Z,515.00
2023-01-30T20:30:23.346Z,524.00
2023-01-30T20:31:23.478Z,520.00
2023-01-30T20:32:23.454Z,525.00
2023-01-30T20:33:23.554Z,520.00
2023-01-30T20:34:23.534Z,521.00
2023-01-30T20:35:23.583Z,520.00
2023-01-30T20:36:23.618Z,519.00
2023-01-30T20:37:23.661Z,518.00
2023-01-30T20:38:24.186Z,519.00
2023-01-30T20:39:23.739Z,516.00
2023-01-30T20:40:23.772Z,518.00
2023-01-30T20:41:23.817Z,517.00
2023-01-30T20:42:23.924Z,512.00
2023-01-30T20:43:23.885Z,513.00
2023-01-30T20:44:23.940Z,518.00
2023-01-30T20:45:23.970Z,514.00
2023-01-30T20:46:24.057Z,506.00
2023-01-30T20:47:24.181Z,513.00
2023-01-30T20:48:24.093Z,516.00
2023-01-30T20:49:24.147Z,506.00
2023-01-30T20:50:24.192Z,508.00
2023-01-30T20:51:24.256Z,509.00
2023-01-30T20:52:25.175Z,510.00
2023-01-30T20:53:24.677Z,514.00
2023-01-30T20:54:24.376Z,507.00
2023-01-30T20:55:24.456Z,513.00
2023-01-30T20:56:24.486Z,516.00
2023-01-30T20:57:24.525Z,505.00
2023-01-30T20:58:24.594Z,508.00
2023-01-30T20:59:24.644Z,506.00
2023-01-30T21:00:24.641Z,513.00
2023-01-30T21:01:24.759Z,506.00
2023-01-30T21:02:24.775Z,508.00
2023-01-30T21:03:24.752Z,508.00
2023-01-30T21:04:24.970Z,503.00
2023-01-30T21:05:24.859Z,510.00
2023-01-30T21:06:37.235Z,504.00
2023-01-30T21:07:25.919Z,504.00
2023-01-30T21:08:24.932Z,505.00
2023-01-30T21:09:24.971Z,507.00
2023-01-30T21:10:24.972Z,505.00
2023-01-30T21:11:24.991Z,506.00
2023-01-30T21:12:25.007Z,504.00
2023-01-30T21:13:25.687Z,510.00
2023-01-30T21:14:26.592Z,505.00
2023-01-30T21:15:25.061Z,500.00
2023-01-30T21:16:25.115Z,501.00
2023-01-30T21:17:25.115Z,502.00
2023-01-30T21:18:25.184Z,507.00
2023-01-30T21:19:25.149Z,505.00
2023-01-30T21:20:25.172Z,502.00
2023-01-30T21:21:26.182Z,504.00
2023-01-30T21:22:25.212Z,507.00
2023-01-30T21:23:25.238Z,504.00
2023-01-30T21:24:25.283Z,501.00
2023-01-30T21:25:25.341Z,501.00
2023-01-30T21:26:25.396Z,500.00
2023-01-30T21:27:25.434Z,506.00
2023-01-30T21:28:25.484Z,507.00
2023-01-30T21:29:25.545Z,503.00
2023-01-30T21:30:25.733Z,509.00
2023-01-30T21:31:25.672Z,501.00
2023-01-30T21:32:25.644Z,503.00
2023-01-30T21:33:25.696Z,504.00
2023-01-30T21:34:25.726Z,503.00
2023-01-30T21:35:25.760Z,505.00
2023-01-30T21:36:25.789Z,503.00
2023-01-30T21:37:25.819Z,506.00
2023-01-30T21:38:25.854Z,501.00
2023-01-30T21:39:25.921Z,504.00
2023-01-30T21:40:25.965Z,504.00
2023-01-30T21:41:26.000Z,506.00
2023-01-30T21:42:26.048Z,505.00
2023-01-30T21:43:26.057Z,506.00
2023-01-30T21:44:26.100Z,508.00
2023-01-30T21:45:26.153Z,509.00
2023-01-30T21:46:26.249Z,501.00
2023-01-30T21:47:26.271Z,506.00
2023-01-30T21:48:26.281Z,507.00
2023-01-30T21:49:26.341Z,506.00
2023-01-30T21:50:26.403Z,503.00
2023-01-30T21:51:26.423Z,505.00
2023-01-30T21:52:26.471Z,500.00
2023-01-30T21:53:26.503Z,507.00
2023-01-30T21:54:26.694Z,502.00
2023-01-30T21:55:26.599Z,505.00
2023-01-30T21:56:26.615Z,506.00
2023-01-30T21:57:26.643Z,507.00
2023-01-30T21:58:26.653Z,509.00
2023-01-30T21:59:26.699Z,506.00
2023-01-30T22:00:26.726Z,502.00
2023-01-30T22:01:26.823Z,510.00
2023-01-30T22:02:26.798Z,508.00
2023-01-30T22:03:26.829Z,505.00
2023-01-30T22:04:26.877Z,507.00
2023-01-30T22:05:26.870Z,506.00
2023-01-30T22:06:26.900Z,506.00
2023-01-30T22:07:26.935Z,504.00
2023-01-30T22:08:27.693Z,505.00
2023-01-30T22:09:26.993Z,507.00
2023-01-30T22:10:27.024Z,505.00
2023-01-30T22:11:27.054Z,506.00
2023-01-30T22:12:27.106Z,507.00
2023-01-30T22:13:27.150Z,503.00
2023-01-30T22:14:27.272Z,501.00
2023-01-30T22:15:27.287Z,505.00
2023-01-30T22:16:27.320Z,504.00
2023-01-30T22:17:27.359Z,503.00
2023-01-30T22:18:27.346Z,504.00
2023-01-30T22:19:27.362Z,505.00
2023-01-30T22:20:27.397Z,501.00
2023-01-30T22:21:27.453Z,504.00
2023-01-30T22:22:27.485Z,510.00
2023-01-30T22:23:27.535Z,509.00
2023-01-30T22:24:27.640Z,506.00
2023-01-30T22:25:27.586Z,508.00
2023-01-30T22:26:27.658Z,506.00
2023-01-30T22:27:27.646Z,507.00
2023-01-30T22:28:27.667Z,505.00
2023-01-30T22:29:27.741Z,500.00
2023-01-30T22:30:27.779Z,508.00
2023-01-30T22:31:27.866Z,505.00
2023-01-30T22:32:28.202Z,504.00
2023-01-30T22:33:27.848Z,505.00
2023-01-30T22:34:27.878Z,505.00
2023-01-30T22:35:27.923Z,512.00
2023-01-30T22:36:27.971Z,504.00
2023-01-30T22:37:28.068Z,505.00
2023-01-30T22:38:28.046Z,508.00
2023-01-30T22:39:28.149Z,506.00
2023-01-30T22:40:28.125Z,506.00
2023-01-30T22:41:28.179Z,500.00
2023-01-30T22:42:28.259Z,503.00
2023-01-30T22:43:28.260Z,505.00
2023-01-30T22:44:28.290Z,502.00
2023-01-30T22:45:28.332Z,503.00
2023-01-30T22:46:28.453Z,503.00
2023-01-30T22:47:28.424Z,500.00
2023-01-30T22:48:28.463Z,506.00
2023-01-30T22:49:28.485Z,507.00
2023-01-30T22:50:29.226Z,504.00
2023-01-30T22:51:28.564Z,500.00
2023-01-30T22:52:28.715Z,509.00
2023-01-30T22:53:28.692Z,505.00
2023-01-30T22:54:28.678Z,510.00
2023-01-30T22:55:28.712Z,505.00
2023-01-30T22:56:28.762Z,504.00
2023-01-30T22:57:28.807Z,502.00
2023-01-30T22:58:28.849Z,505.00
2023-01-30T22:59:28.887Z,513.00
2023-01-30T23:00:28.925Z,507.00
2023-01-30T23:01:28.993Z,503.00
2023-01-30T23:02:29.078Z,502.00
2023-01-30T23:03:29.177Z,508.00
2023-01-30T23:04:29.141Z,500.00
2023-01-30T23:05:29.104Z,508.00
2023-01-30T23:06:29.124Z,503.00
2023-01-30T23:07:29.144Z,505.00
2023-01-30T23:08:29.174Z,506.00
2023-01-30T23:09:29.708Z,511.00
2023-01-30T23:10:29.213Z,500.00
2023-01-30T23:11:29.325Z,504.00
2023-01-30T23:12:29.290Z,503.00
2023-01-30T23:13:29.339Z,506.00
2023-01-30T23:14:29.404Z,508.00
2023-01-30T23:15:29.449Z,509.00
2023-01-30T23:16:29.504Z,509.00
2023-01-30T23:17:29.507Z,506.00
2023-01-30T23:18:29.556Z,511.00
2023-01-30T23:19:29.632Z,503.00
2023-01-30T23:20:29.682Z,511.00
2023-01-30T23:21:29.753Z,502.00
2023-01-30T23:22:29.770Z,506.00
2023-01-30T23:23:29.808Z,503.00
2023-01-30T23:24:29.811Z,505.00
2023-01-30T23:25:30.204Z,500.00
2023-01-30T23:26:29.914Z,501.00
2023-01-30T23:27:29.917Z,504.00
2023-01-30T23:28:29.976Z,508.00
2023-01-30T23:29:30.025Z,507.00
2023-01-30T23:30:30.053Z,506.00
2023-01-30T23:31:30.123Z,510.00
2023-01-30T23:32:30.113Z,501.00
2023-01-30T23:33:30.720Z,503.00
2023-01-30T23:34:30.213Z,505.00
2023-01-30T23:35:30.270Z,502.00
2023-01-30T23:36:30.312Z,505.00
2023-01-30T23:37:30.382Z,507.00
2023-01-30T23:38:30.431Z,505.00
2023-01-30T23:39:30.485Z,509.00
2023-01-30T23:40:30.735Z,505.00
2023-01-30T23:41:30.566Z,504.00
2023-01-30T23:42:30.624Z,505.00
2023-01-30T23:43:30.662Z,504.00
2023-01-30T23:44:30.757Z,509.00
2023-01-30T23:45:30.778Z,505.00
2023-01-30T23:46:30.863Z,503.00
2023-01-30T23:47:30.858Z,502.00
2023-01-30T23:48:30.884Z,513.00
2023-01-30T23:49:30.927Z,506.00
2023-01-30T23:50:30.986Z,505.00
2023-01-30T23:51:31.014Z,503.00
2023-01-30T23:52:31.058Z,508.00
2023-01-30T23:53:31.096Z,507.00
2023-01-30T23:54:31.170Z,502.00
2023-01-30T23:55:32.609Z,509.00
2023-01-30T23:56:31.268Z,506.00
2023-01-30T23:57:31.340Z,505.00
2023-01-30T23:58:31.385Z,505.00
2023-01-30T23:59:31.505Z,504.00
